sensor_id;sensor_type;location;lat;lon;timestamp;P1;durP1;ratioP1;P2;durP2;ratioP2
36355;SDS011;22384;54.302;18.596;2023-07-30T00:02:20;2.45;;;1.70;;
36355;SDS011;22384;54.302;18.596;2023-07-30T00:04:46;4.30;;;2.00;;
36355;SDS011;22384;54.302;18.596;2023-07-30T00:07:13;2.55;;;1.80;;
36355;SDS011;22384;54.302;18.596;2023-07-30T00:09:39;3.25;;;1.60;;
36355;SDS011;22384;54.302;18.596;2023-07-30T00:12:06;4.07;;;1.98;;
36355;SDS011;22384;54.302;18.596;2023-07-30T00:14:32;3.97;;;1.75;;
36355;SDS011;22384;54.302;18.596;2023-07-30T00:16:58;1.60;;;1.50;;
36355;SDS011;22384;54.302;18.596;2023-07-30T00:19:24;2.65;;;1.60;;
36355;SDS011;22384;54.302;18.596;2023-07-30T00:21:50;2.03;;;1.42;;
36355;SDS011;22384;54.302;18.596;2023-07-30T00:24:16;1.52;;;1.42;;
36355;SDS011;22384;54.302;18.596;2023-07-30T00:26:42;2.78;;;1.45;;
36355;SDS011;22384;54.302;18.596;2023-07-30T00:29:08;3.63;;;1.50;;
36355;SDS011;22384;54.302;18.596;2023-07-30T00:31:34;2.90;;;1.77;;
36355;SDS011;22384;54.302;18.596;2023-07-30T00:34:00;1.40;;;1.30;;
36355;SDS011;22384;54.302;18.596;2023-07-30T00:36:26;2.28;;;1.25;;
36355;SDS011;22384;54.302;18.596;2023-07-30T00:38:53;1.40;;;1.30;;
36355;SDS011;22384;54.302;18.596;2023-07-30T00:41:19;2.05;;;1.45;;
36355;SDS011;22384;54.302;18.596;2023-07-30T00:43:45;1.65;;;1.30;;
36355;SDS011;22384;54.302;18.596;2023-07-30T00:46:11;2.92;;;1.40;;
36355;SDS011;22384;54.302;18.596;2023-07-30T00:48:37;2.78;;;1.65;;
36355;SDS011;22384;54.302;18.596;2023-07-30T00:51:03;4.68;;;1.73;;
36355;SDS011;22384;54.302;18.596;2023-07-30T00:53:30;1.77;;;1.50;;
36355;SDS011;22384;54.302;18.596;2023-07-30T00:55:56;1.85;;;1.50;;
36355;SDS011;22384;54.302;18.596;2023-07-30T00:58:22;1.60;;;1.50;;
36355;SDS011;22384;54.302;18.596;2023-07-30T01:00:48;1.70;;;1.40;;
36355;SDS011;22384;54.302;18.596;2023-07-30T01:03:15;1.40;;;1.23;;
36355;SDS011;22384;54.302;18.596;2023-07-30T01:05:41;3.70;;;1.83;;
36355;SDS011;22384;54.302;18.596;2023-07-30T01:08:07;3.65;;;1.75;;
36355;SDS011;22384;54.302;18.596;2023-07-30T01:10:33;3.08;;;1.60;;
36355;SDS011;22384;54.302;18.596;2023-07-30T01:13:01;3.50;;;1.70;;
36355;SDS011;22384;54.302;18.596;2023-07-30T01:15:28;3.03;;;1.65;;
36355;SDS011;22384;54.302;18.596;2023-07-30T01:17:54;4.43;;;1.55;;
36355;SDS011;22384;54.302;18.596;2023-07-30T01:20:20;2.38;;;1.70;;
36355;SDS011;22384;54.302;18.596;2023-07-30T01:22:46;2.10;;;1.73;;
36355;SDS011;22384;54.302;18.596;2023-07-30T01:25:13;3.88;;;1.67;;
36355;SDS011;22384;54.302;18.596;2023-07-30T01:27:39;4.18;;;1.60;;
36355;SDS011;22384;54.302;18.596;2023-07-30T01:32:41;1.70;;;1.35;;
36355;SDS011;22384;54.302;18.596;2023-07-30T01:35:08;3.50;;;1.90;;
36355;SDS011;22384;54.302;18.596;2023-07-30T01:37:34;4.72;;;1.65;;
36355;SDS011;22384;54.302;18.596;2023-07-30T01:40:01;2.75;;;1.90;;
36355;SDS011;22384;54.302;18.596;2023-07-30T01:42:30;3.33;;;1.90;;
36355;SDS011;22384;54.302;18.596;2023-07-30T01:44:56;3.03;;;1.77;;
36355;SDS011;22384;54.302;18.596;2023-07-30T01:47:22;2.88;;;1.80;;
36355;SDS011;22384;54.302;18.596;2023-07-30T01:49:48;3.63;;;2.22;;
36355;SDS011;22384;54.302;18.596;2023-07-30T01:52:14;4.40;;;1.73;;
36355;SDS011;22384;54.302;18.596;2023-07-30T01:54:40;2.35;;;1.88;;
36355;SDS011;22384;54.302;18.596;2023-07-30T01:57:07;2.08;;;1.80;;
36355;SDS011;22384;54.302;18.596;2023-07-30T01:59:33;2.47;;;2.00;;
36355;SDS011;22384;54.302;18.596;2023-07-30T02:01:59;7.03;;;2.20;;
36355;SDS011;22384;54.302;18.596;2023-07-30T02:04:25;2.75;;;1.90;;
36355;SDS011;22384;54.302;18.596;2023-07-30T02:06:51;2.92;;;1.90;;
36355;SDS011;22384;54.302;18.596;2023-07-30T02:09:17;4.55;;;2.22;;
36355;SDS011;22384;54.302;18.596;2023-07-30T02:11:43;2.55;;;2.05;;
36355;SDS011;22384;54.302;18.596;2023-07-30T02:14:09;4.72;;;2.13;;
36355;SDS011;22384;54.302;18.596;2023-07-30T02:16:35;4.93;;;2.08;;
36355;SDS011;22384;54.302;18.596;2023-07-30T02:19:01;3.35;;;2.10;;
36355;SDS011;22384;54.302;18.596;2023-07-30T02:21:27;2.40;;;1.70;;
36355;SDS011;22384;54.302;18.596;2023-07-30T02:23:57;2.25;;;1.90;;
36355;SDS011;22384;54.302;18.596;2023-07-30T02:26:23;3.55;;;2.20;;
36355;SDS011;22384;54.302;18.596;2023-07-30T02:28:49;3.70;;;2.60;;
36355;SDS011;22384;54.302;18.596;2023-07-30T02:31:15;6.25;;;2.72;;
36355;SDS011;22384;54.302;18.596;2023-07-30T02:33:41;4.97;;;3.22;;
36355;SDS011;22384;54.302;18.596;2023-07-30T02:36:07;4.63;;;3.97;;
36355;SDS011;22384;54.302;18.596;2023-07-30T02:38:33;8.15;;;6.53;;
36355;SDS011;22384;54.302;18.596;2023-07-30T02:40:59;8.30;;;6.53;;
36355;SDS011;22384;54.302;18.596;2023-07-30T02:43:25;7.00;;;5.40;;
36355;SDS011;22384;54.302;18.596;2023-07-30T02:45:51;7.43;;;5.22;;
36355;SDS011;22384;54.302;18.596;2023-07-30T02:48:17;6.70;;;4.90;;
36355;SDS011;22384;54.302;18.596;2023-07-30T02:50:43;5.18;;;4.55;;
36355;SDS011;22384;54.302;18.596;2023-07-30T02:53:09;5.82;;;5.03;;
36355;SDS011;22384;54.302;18.596;2023-07-30T02:55:35;6.75;;;3.30;;
36355;SDS011;22384;54.302;18.596;2023-07-30T02:58:01;6.50;;;2.65;;
36355;SDS011;22384;54.302;18.596;2023-07-30T03:00:27;5.93;;;3.30;;
36355;SDS011;22384;54.302;18.596;2023-07-30T03:02:53;3.80;;;2.97;;
36355;SDS011;22384;54.302;18.596;2023-07-30T03:05:19;3.70;;;3.00;;
36355;SDS011;22384;54.302;18.596;2023-07-30T03:07:45;4.32;;;2.65;;
36355;SDS011;22384;54.302;18.596;2023-07-30T03:10:11;6.65;;;2.50;;
36355;SDS011;22384;54.302;18.596;2023-07-30T03:12:37;4.28;;;2.70;;
36355;SDS011;22384;54.302;18.596;2023-07-30T03:15:03;3.10;;;2.78;;
36355;SDS011;22384;54.302;18.596;2023-07-30T03:17:29;3.22;;;2.70;;
36355;SDS011;22384;54.302;18.596;2023-07-30T03:19:55;5.53;;;2.40;;
36355;SDS011;22384;54.302;18.596;2023-07-30T03:22:21;5.38;;;2.95;;
36355;SDS011;22384;54.302;18.596;2023-07-30T03:24:47;3.47;;;2.60;;
36355;SDS011;22384;54.302;18.596;2023-07-30T03:27:14;3.83;;;2.80;;
36355;SDS011;22384;54.302;18.596;2023-07-30T03:29:40;3.17;;;2.75;;
36355;SDS011;22384;54.302;18.596;2023-07-30T03:32:06;6.18;;;3.20;;
36355;SDS011;22384;54.302;18.596;2023-07-30T03:34:32;4.15;;;2.80;;
36355;SDS011;22384;54.302;18.596;2023-07-30T03:36:58;5.55;;;3.28;;
36355;SDS011;22384;54.302;18.596;2023-07-30T03:39:25;8.00;;;3.03;;
36355;SDS011;22384;54.302;18.596;2023-07-30T03:41:51;4.03;;;3.10;;
36355;SDS011;22384;54.302;18.596;2023-07-30T03:44:17;3.92;;;2.92;;
36355;SDS011;22384;54.302;18.596;2023-07-30T03:46:43;7.85;;;3.80;;
36355;SDS011;22384;54.302;18.596;2023-07-30T03:49:09;7.78;;;3.78;;
36355;SDS011;22384;54.302;18.596;2023-07-30T03:51:35;5.03;;;3.70;;
36355;SDS011;22384;54.302;18.596;2023-07-30T03:54:03;5.78;;;3.55;;
36355;SDS011;22384;54.302;18.596;2023-07-30T03:56:29;5.88;;;4.07;;
36355;SDS011;22384;54.302;18.596;2023-07-30T03:58:55;7.63;;;3.58;;
36355;SDS011;22384;54.302;18.596;2023-07-30T04:01:22;6.40;;;3.70;;
36355;SDS011;22384;54.302;18.596;2023-07-30T04:03:48;5.88;;;4.00;;
36355;SDS011;22384;54.302;18.596;2023-07-30T04:06:14;4.25;;;3.72;;
36355;SDS011;22384;54.302;18.596;2023-07-30T04:08:40;4.63;;;3.47;;
36355;SDS011;22384;54.302;18.596;2023-07-30T04:11:06;5.88;;;4.03;;
36355;SDS011;22384;54.302;18.596;2023-07-30T04:13:32;4.30;;;3.88;;
36355;SDS011;22384;54.302;18.596;2023-07-30T04:15:58;7.50;;;3.92;;
36355;SDS011;22384;54.302;18.596;2023-07-30T04:18:24;6.50;;;3.97;;
36355;SDS011;22384;54.302;18.596;2023-07-30T04:20:50;5.25;;;4.00;;
36355;SDS011;22384;54.302;18.596;2023-07-30T04:23:16;7.13;;;4.68;;
36355;SDS011;22384;54.302;18.596;2023-07-30T04:25:42;8.40;;;5.18;;
36355;SDS011;22384;54.302;18.596;2023-07-30T04:28:08;9.02;;;5.30;;
36355;SDS011;22384;54.302;18.596;2023-07-30T04:30:34;8.13;;;5.40;;
36355;SDS011;22384;54.302;18.596;2023-07-30T04:33:00;10.88;;;6.50;;
36355;SDS011;22384;54.302;18.596;2023-07-30T04:35:26;10.10;;;6.05;;
36355;SDS011;22384;54.302;18.596;2023-07-30T04:37:52;7.28;;;5.88;;
36355;SDS011;22384;54.302;18.596;2023-07-30T04:40:18;7.25;;;5.63;;
36355;SDS011;22384;54.302;18.596;2023-07-30T04:42:44;11.20;;;7.20;;
36355;SDS011;22384;54.302;18.596;2023-07-30T04:45:11;11.77;;;5.90;;
36355;SDS011;22384;54.302;18.596;2023-07-30T04:47:37;12.23;;;5.82;;
36355;SDS011;22384;54.302;18.596;2023-07-30T04:50:03;8.10;;;6.35;;
36355;SDS011;22384;54.302;18.596;2023-07-30T04:52:29;7.28;;;5.78;;
36355;SDS011;22384;54.302;18.596;2023-07-30T04:54:55;7.90;;;6.63;;
36355;SDS011;22384;54.302;18.596;2023-07-30T04:57:22;10.07;;;6.18;;
36355;SDS011;22384;54.302;18.596;2023-07-30T04:59:48;7.90;;;6.20;;
36355;SDS011;22384;54.302;18.596;2023-07-30T05:02:14;7.28;;;6.00;;
36355;SDS011;22384;54.302;18.596;2023-07-30T05:04:40;9.00;;;6.60;;
36355;SDS011;22384;54.302;18.596;2023-07-30T05:07:06;11.15;;;6.53;;
36355;SDS011;22384;54.302;18.596;2023-07-30T05:09:32;8.07;;;6.47;;
36355;SDS011;22384;54.302;18.596;2023-07-30T05:11:58;8.50;;;6.10;;
36355;SDS011;22384;54.302;18.596;2023-07-30T05:14:24;8.65;;;6.78;;
36355;SDS011;22384;54.302;18.596;2023-07-30T05:16:50;9.25;;;6.40;;
36355;SDS011;22384;54.302;18.596;2023-07-30T05:19:16;10.60;;;6.82;;
36355;SDS011;22384;54.302;18.596;2023-07-30T05:21:42;10.52;;;7.10;;
36355;SDS011;22384;54.302;18.596;2023-07-30T05:24:08;10.32;;;6.18;;
36355;SDS011;22384;54.302;18.596;2023-07-30T05:26:34;11.43;;;7.22;;
36355;SDS011;22384;54.302;18.596;2023-07-30T05:29:00;10.52;;;6.65;;
36355;SDS011;22384;54.302;18.596;2023-07-30T05:31:26;8.90;;;6.47;;
36355;SDS011;22384;54.302;18.596;2023-07-30T05:33:52;9.75;;;7.05;;
36355;SDS011;22384;54.302;18.596;2023-07-30T05:36:18;12.85;;;6.70;;
36355;SDS011;22384;54.302;18.596;2023-07-30T05:38:44;9.50;;;7.43;;
36355;SDS011;22384;54.302;18.596;2023-07-30T05:41:10;9.27;;;6.80;;
36355;SDS011;22384;54.302;18.596;2023-07-30T05:43:36;7.72;;;6.57;;
36355;SDS011;22384;54.302;18.596;2023-07-30T05:46:02;10.00;;;7.50;;
36355;SDS011;22384;54.302;18.596;2023-07-30T05:48:28;9.70;;;6.43;;
36355;SDS011;22384;54.302;18.596;2023-07-30T05:50:54;7.82;;;6.28;;
36355;SDS011;22384;54.302;18.596;2023-07-30T05:53:20;10.07;;;6.30;;
36355;SDS011;22384;54.302;18.596;2023-07-30T05:55:46;9.68;;;6.40;;
36355;SDS011;22384;54.302;18.596;2023-07-30T05:58:13;9.00;;;6.18;;
36355;SDS011;22384;54.302;18.596;2023-07-30T06:00:39;7.30;;;6.05;;
36355;SDS011;22384;54.302;18.596;2023-07-30T06:03:05;9.50;;;6.40;;
36355;SDS011;22384;54.302;18.596;2023-07-30T06:05:38;11.35;;;6.60;;
36355;SDS011;22384;54.302;18.596;2023-07-30T06:10:30;11.13;;;6.82;;
36355;SDS011;22384;54.302;18.596;2023-07-30T06:12:56;9.68;;;6.22;;
36355;SDS011;22384;54.302;18.596;2023-07-30T06:15:22;9.10;;;6.10;;
36355;SDS011;22384;54.302;18.596;2023-07-30T06:17:48;7.10;;;5.78;;
36355;SDS011;22384;54.302;18.596;2023-07-30T06:20:14;7.80;;;6.07;;
36355;SDS011;22384;54.302;18.596;2023-07-30T06:22:40;8.93;;;6.40;;
36355;SDS011;22384;54.302;18.596;2023-07-30T06:25:06;8.43;;;6.18;;
36355;SDS011;22384;54.302;18.596;2023-07-30T06:27:32;8.73;;;5.72;;
36355;SDS011;22384;54.302;18.596;2023-07-30T06:29:58;10.52;;;6.68;;
36355;SDS011;22384;54.302;18.596;2023-07-30T06:32:24;8.57;;;6.38;;
36355;SDS011;22384;54.302;18.596;2023-07-30T06:34:50;7.82;;;5.90;;
36355;SDS011;22384;54.302;18.596;2023-07-30T06:37:16;11.07;;;6.57;;
36355;SDS011;22384;54.302;18.596;2023-07-30T06:39:42;11.05;;;5.90;;
36355;SDS011;22384;54.302;18.596;2023-07-30T06:42:08;12.75;;;6.30;;
36355;SDS011;22384;54.302;18.596;2023-07-30T06:44:34;9.20;;;5.88;;
36355;SDS011;22384;54.302;18.596;2023-07-30T06:47:00;9.52;;;6.30;;
36355;SDS011;22384;54.302;18.596;2023-07-30T06:49:26;8.70;;;5.90;;
36355;SDS011;22384;54.302;18.596;2023-07-30T06:51:53;7.28;;;5.70;;
36355;SDS011;22384;54.302;18.596;2023-07-30T06:54:20;9.18;;;6.38;;
36355;SDS011;22384;54.302;18.596;2023-07-30T06:56:46;7.25;;;5.03;;
36355;SDS011;22384;54.302;18.596;2023-07-30T06:59:12;8.20;;;5.70;;
36355;SDS011;22384;54.302;18.596;2023-07-30T07:01:38;7.65;;;6.20;;
36355;SDS011;22384;54.302;18.596;2023-07-30T07:04:04;7.35;;;4.80;;
36355;SDS011;22384;54.302;18.596;2023-07-30T07:06:30;6.35;;;5.20;;
36355;SDS011;22384;54.302;18.596;2023-07-30T07:08:56;6.95;;;5.35;;
36355;SDS011;22384;54.302;18.596;2023-07-30T07:11:22;10.95;;;4.72;;
36355;SDS011;22384;54.302;18.596;2023-07-30T07:13:48;7.60;;;4.95;;
36355;SDS011;22384;54.302;18.596;2023-07-30T07:16:14;7.72;;;5.10;;
36355;SDS011;22384;54.302;18.596;2023-07-30T07:18:40;9.30;;;5.47;;
36355;SDS011;22384;54.302;18.596;2023-07-30T07:21:06;8.15;;;4.60;;
36355;SDS011;22384;54.302;18.596;2023-07-30T07:23:33;7.95;;;5.18;;
36355;SDS011;22384;54.302;18.596;2023-07-30T07:25:59;6.43;;;4.25;;
36355;SDS011;22384;54.302;18.596;2023-07-30T07:28:25;7.10;;;4.43;;
36355;SDS011;22384;54.302;18.596;2023-07-30T07:30:51;7.22;;;4.10;;
36355;SDS011;22384;54.302;18.596;2023-07-30T07:33:17;6.47;;;3.60;;
36355;SDS011;22384;54.302;18.596;2023-07-30T07:35:43;7.72;;;3.30;;
36355;SDS011;22384;54.302;18.596;2023-07-30T07:38:09;6.78;;;3.13;;
36355;SDS011;22384;54.302;18.596;2023-07-30T07:40:36;9.55;;;3.10;;
36355;SDS011;22384;54.302;18.596;2023-07-30T07:43:04;3.60;;;3.10;;
36355;SDS011;22384;54.302;18.596;2023-07-30T07:45:30;8.05;;;3.20;;
36355;SDS011;22384;54.302;18.596;2023-07-30T07:47:56;5.60;;;3.03;;
36355;SDS011;22384;54.302;18.596;2023-07-30T07:50:22;4.78;;;3.15;;
36355;SDS011;22384;54.302;18.596;2023-07-30T07:52:48;4.05;;;3.08;;
36355;SDS011;22384;54.302;18.596;2023-07-30T07:55:14;4.80;;;2.75;;
36355;SDS011;22384;54.302;18.596;2023-07-30T07:57:40;5.15;;;3.10;;
36355;SDS011;22384;54.302;18.596;2023-07-30T08:00:07;5.30;;;3.15;;
36355;SDS011;22384;54.302;18.596;2023-07-30T08:02:33;5.88;;;3.17;;
36355;SDS011;22384;54.302;18.596;2023-07-30T08:05:00;6.18;;;3.08;;
36355;SDS011;22384;54.302;18.596;2023-07-30T08:07:26;5.70;;;3.30;;
36355;SDS011;22384;54.302;18.596;2023-07-30T08:09:52;6.40;;;3.08;;
36355;SDS011;22384;54.302;18.596;2023-07-30T08:12:19;3.85;;;2.67;;
36355;SDS011;22384;54.302;18.596;2023-07-30T08:14:45;3.67;;;2.60;;
36355;SDS011;22384;54.302;18.596;2023-07-30T08:17:11;7.22;;;2.65;;
36355;SDS011;22384;54.302;18.596;2023-07-30T08:19:37;5.57;;;2.80;;
36355;SDS011;22384;54.302;18.596;2023-07-30T08:22:03;4.53;;;2.40;;
36355;SDS011;22384;54.302;18.596;2023-07-30T08:24:29;4.38;;;2.72;;
36355;SDS011;22384;54.302;18.596;2023-07-30T08:26:55;3.45;;;2.42;;
36355;SDS011;22384;54.302;18.596;2023-07-30T08:29:21;3.58;;;2.30;;
36355;SDS011;22384;54.302;18.596;2023-07-30T08:31:47;4.05;;;2.67;;
36355;SDS011;22384;54.302;18.596;2023-07-30T08:34:14;3.33;;;2.38;;
36355;SDS011;22384;54.302;18.596;2023-07-30T08:36:40;3.00;;;2.50;;
36355;SDS011;22384;54.302;18.596;2023-07-30T08:39:06;5.63;;;2.40;;
36355;SDS011;22384;54.302;18.596;2023-07-30T08:41:32;6.40;;;2.38;;
36355;SDS011;22384;54.302;18.596;2023-07-30T08:43:58;4.78;;;2.42;;
36355;SDS011;22384;54.302;18.596;2023-07-30T08:46:24;4.43;;;2.72;;
36355;SDS011;22384;54.302;18.596;2023-07-30T08:48:50;3.88;;;2.63;;
36355;SDS011;22384;54.302;18.596;2023-07-30T08:51:16;4.28;;;2.22;;
36355;SDS011;22384;54.302;18.596;2023-07-30T08:53:43;4.95;;;2.50;;
36355;SDS011;22384;54.302;18.596;2023-07-30T08:56:09;3.67;;;2.80;;
36355;SDS011;22384;54.302;18.596;2023-07-30T08:58:36;4.70;;;2.80;;
36355;SDS011;22384;54.302;18.596;2023-07-30T09:01:05;5.20;;;2.20;;
36355;SDS011;22384;54.302;18.596;2023-07-30T09:03:35;6.05;;;2.60;;
36355;SDS011;22384;54.302;18.596;2023-07-30T09:06:03;5.68;;;2.53;;
36355;SDS011;22384;54.302;18.596;2023-07-30T09:08:29;6.32;;;2.15;;
36355;SDS011;22384;54.302;18.596;2023-07-30T09:10:57;3.28;;;2.38;;
36355;SDS011;22384;54.302;18.596;2023-07-30T09:13:23;5.05;;;2.25;;
36355;SDS011;22384;54.302;18.596;2023-07-30T09:15:49;6.32;;;2.40;;
36355;SDS011;22384;54.302;18.596;2023-07-30T09:18:18;4.82;;;2.15;;
36355;SDS011;22384;54.302;18.596;2023-07-30T09:20:44;3.17;;;2.15;;
36355;SDS011;22384;54.302;18.596;2023-07-30T09:23:10;3.83;;;2.15;;
36355;SDS011;22384;54.302;18.596;2023-07-30T09:25:37;5.78;;;2.10;;
36355;SDS011;22384;54.302;18.596;2023-07-30T09:28:04;2.72;;;1.73;;
36355;SDS011;22384;54.302;18.596;2023-07-30T09:30:31;4.20;;;2.50;;
36355;SDS011;22384;54.302;18.596;2023-07-30T09:32:58;3.75;;;2.38;;
36355;SDS011;22384;54.302;18.596;2023-07-30T09:35:25;4.45;;;2.40;;
36355;SDS011;22384;54.302;18.596;2023-07-30T09:38:01;3.95;;;2.00;;
36355;SDS011;22384;54.302;18.596;2023-07-30T09:40:31;3.83;;;2.33;;
36355;SDS011;22384;54.302;18.596;2023-07-30T09:42:57;2.22;;;1.98;;
36355;SDS011;22384;54.302;18.596;2023-07-30T09:45:24;6.65;;;1.90;;
36355;SDS011;22384;54.302;18.596;2023-07-30T09:47:50;3.10;;;1.90;;
36355;SDS011;22384;54.302;18.596;2023-07-30T09:50:17;6.57;;;1.92;;
36355;SDS011;22384;54.302;18.596;2023-07-30T09:52:43;3.33;;;2.00;;
36355;SDS011;22384;54.302;18.596;2023-07-30T09:55:09;3.08;;;2.13;;
36355;SDS011;22384;54.302;18.596;2023-07-30T09:57:36;2.30;;;1.98;;
36355;SDS011;22384;54.302;18.596;2023-07-30T10:00:03;2.65;;;1.90;;
36355;SDS011;22384;54.302;18.596;2023-07-30T10:02:30;4.10;;;2.63;;
36355;SDS011;22384;54.302;18.596;2023-07-30T10:04:57;1.90;;;1.70;;
36355;SDS011;22384;54.302;18.596;2023-07-30T10:07:25;6.85;;;2.00;;
36355;SDS011;22384;54.302;18.596;2023-07-30T10:09:52;3.00;;;2.00;;
36355;SDS011;22384;54.302;18.596;2023-07-30T10:12:22;3.95;;;1.83;;
36355;SDS011;22384;54.302;18.596;2023-07-30T10:14:49;4.20;;;2.00;;
36355;SDS011;22384;54.302;18.596;2023-07-30T10:17:16;6.40;;;2.00;;
36355;SDS011;22384;54.302;18.596;2023-07-30T10:19:46;4.93;;;1.88;;
36355;SDS011;22384;54.302;18.596;2023-07-30T10:24:40;4.43;;;2.13;;
36355;SDS011;22384;54.302;18.596;2023-07-30T10:27:09;2.08;;;1.88;;
36355;SDS011;22384;54.302;18.596;2023-07-30T10:29:35;3.28;;;2.05;;
36355;SDS011;22384;54.302;18.596;2023-07-30T10:32:03;2.13;;;1.52;;
36355;SDS011;22384;54.302;18.596;2023-07-30T10:34:43;2.22;;;1.88;;
36355;SDS011;22384;54.302;18.596;2023-07-30T10:39:35;2.90;;;1.63;;
36355;SDS011;22384;54.302;18.596;2023-07-30T10:42:08;2.65;;;1.90;;
36355;SDS011;22384;54.302;18.596;2023-07-30T10:44:45;3.78;;;1.88;;
36355;SDS011;22384;54.302;18.596;2023-07-30T10:47:11;5.63;;;2.15;;
36355;SDS011;22384;54.302;18.596;2023-07-30T10:49:38;3.97;;;2.25;;
36355;SDS011;22384;54.302;18.596;2023-07-30T10:52:05;2.78;;;1.83;;
36355;SDS011;22384;54.302;18.596;2023-07-30T10:54:34;2.17;;;1.70;;
36355;SDS011;22384;54.302;18.596;2023-07-30T10:57:00;3.67;;;2.15;;
36355;SDS011;22384;54.302;18.596;2023-07-30T10:59:26;4.57;;;1.80;;
36355;SDS011;22384;54.302;18.596;2023-07-30T11:01:58;2.75;;;1.70;;
36355;SDS011;22384;54.302;18.596;2023-07-30T11:04:24;5.30;;;1.80;;
36355;SDS011;22384;54.302;18.596;2023-07-30T11:06:51;3.03;;;1.80;;
36355;SDS011;22384;54.302;18.596;2023-07-30T11:09:27;2.55;;;1.73;;
36355;SDS011;22384;54.302;18.596;2023-07-30T11:11:55;1.92;;;1.55;;
36355;SDS011;22384;54.302;18.596;2023-07-30T11:14:22;5.55;;;1.75;;
36355;SDS011;22384;54.302;18.596;2023-07-30T11:16:54;2.55;;;1.48;;
36355;SDS011;22384;54.302;18.596;2023-07-30T11:19:22;1.60;;;1.48;;
36355;SDS011;22384;54.302;18.596;2023-07-30T11:21:49;4.88;;;1.38;;
36355;SDS011;22384;54.302;18.596;2023-07-30T11:24:15;2.72;;;1.65;;
36355;SDS011;22384;54.302;18.596;2023-07-30T11:26:42;2.03;;;1.40;;
36355;SDS011;22384;54.302;18.596;2023-07-30T11:29:14;4.88;;;1.48;;
36355;SDS011;22384;54.302;18.596;2023-07-30T11:31:41;2.92;;;1.33;;
36355;SDS011;22384;54.302;18.596;2023-07-30T11:34:07;3.10;;;1.45;;
36355;SDS011;22384;54.302;18.596;2023-07-30T11:36:33;2.58;;;1.50;;
36355;SDS011;22384;54.302;18.596;2023-07-30T11:38:59;3.70;;;1.42;;
36355;SDS011;22384;54.302;18.596;2023-07-30T11:41:26;1.70;;;1.48;;
36355;SDS011;22384;54.302;18.596;2023-07-30T11:43:53;1.65;;;1.42;;
36355;SDS011;22384;54.302;18.596;2023-07-30T11:46:20;2.03;;;1.70;;
36355;SDS011;22384;54.302;18.596;2023-07-30T11:48:52;3.70;;;1.90;;
36355;SDS011;22384;54.302;18.596;2023-07-30T11:53:50;1.85;;;1.45;;
36355;SDS011;22384;54.302;18.596;2023-07-30T11:56:26;2.08;;;1.67;;
36355;SDS011;22384;54.302;18.596;2023-07-30T11:58:54;3.15;;;1.60;;
36355;SDS011;22384;54.302;18.596;2023-07-30T12:01:21;3.35;;;1.40;;
36355;SDS011;22384;54.302;18.596;2023-07-30T12:03:48;1.95;;;1.70;;
36355;SDS011;22384;54.302;18.596;2023-07-30T12:06:14;7.00;;;2.35;;
36355;SDS011;22384;54.302;18.596;2023-07-30T12:08:40;2.45;;;1.70;;
36355;SDS011;22384;54.302;18.596;2023-07-30T12:11:07;2.17;;;1.88;;
36355;SDS011;22384;54.302;18.596;2023-07-30T12:13:34;3.22;;;1.70;;
36355;SDS011;22384;54.302;18.596;2023-07-30T12:16:00;4.93;;;2.38;;
36355;SDS011;22384;54.302;18.596;2023-07-30T12:18:26;4.40;;;2.20;;
36355;SDS011;22384;54.302;18.596;2023-07-30T12:20:54;3.25;;;1.90;;
36355;SDS011;22384;54.302;18.596;2023-07-30T12:23:21;2.55;;;1.67;;
36355;SDS011;22384;54.302;18.596;2023-07-30T12:25:47;3.97;;;2.50;;
36355;SDS011;22384;54.302;18.596;2023-07-30T12:28:13;5.45;;;2.20;;
36355;SDS011;22384;54.302;18.596;2023-07-30T12:30:39;4.93;;;2.13;;
36355;SDS011;22384;54.302;18.596;2023-07-30T12:33:05;4.43;;;1.70;;
36355;SDS011;22384;54.302;18.596;2023-07-30T12:35:32;5.85;;;2.20;;
36355;SDS011;22384;54.302;18.596;2023-07-30T12:37:58;4.50;;;1.88;;
36355;SDS011;22384;54.302;18.596;2023-07-30T12:40:25;2.45;;;1.90;;
36355;SDS011;22384;54.302;18.596;2023-07-30T12:42:51;3.13;;;2.00;;
36355;SDS011;22384;54.302;18.596;2023-07-30T12:45:18;4.57;;;2.00;;
36355;SDS011;22384;54.302;18.596;2023-07-30T12:47:44;2.40;;;1.92;;
36355;SDS011;22384;54.302;18.596;2023-07-30T12:50:10;4.43;;;2.33;;
36355;SDS011;22384;54.302;18.596;2023-07-30T12:52:36;1.85;;;1.73;;
36355;SDS011;22384;54.302;18.596;2023-07-30T12:55:02;2.92;;;1.70;;
36355;SDS011;22384;54.302;18.596;2023-07-30T12:57:29;2.72;;;1.58;;
36355;SDS011;22384;54.302;18.596;2023-07-30T12:59:56;3.13;;;1.80;;
36355;SDS011;22384;54.302;18.596;2023-07-30T13:02:22;3.28;;;1.75;;
36355;SDS011;22384;54.302;18.596;2023-07-30T13:04:48;4.38;;;2.20;;
36355;SDS011;22384;54.302;18.596;2023-07-30T13:07:14;4.13;;;1.92;;
36355;SDS011;22384;54.302;18.596;2023-07-30T13:09:40;2.88;;;1.73;;
36355;SDS011;22384;54.302;18.596;2023-07-30T13:12:06;2.45;;;1.73;;
36355;SDS011;22384;54.302;18.596;2023-07-30T13:14:32;3.83;;;2.03;;
36355;SDS011;22384;54.302;18.596;2023-07-30T13:16:58;3.65;;;1.77;;
36355;SDS011;22384;54.302;18.596;2023-07-30T13:19:24;2.78;;;1.73;;
36355;SDS011;22384;54.302;18.596;2023-07-30T13:21:51;2.65;;;1.70;;
36355;SDS011;22384;54.302;18.596;2023-07-30T13:24:17;4.50;;;2.05;;
36355;SDS011;22384;54.302;18.596;2023-07-30T13:26:43;4.22;;;2.00;;
36355;SDS011;22384;54.302;18.596;2023-07-30T13:29:09;2.75;;;1.60;;
36355;SDS011;22384;54.302;18.596;2023-07-30T13:31:35;3.38;;;1.75;;
36355;SDS011;22384;54.302;18.596;2023-07-30T13:34:02;2.28;;;1.80;;
36355;SDS011;22384;54.302;18.596;2023-07-30T13:36:28;4.00;;;1.60;;
36355;SDS011;22384;54.302;18.596;2023-07-30T13:38:54;1.88;;;1.70;;
36355;SDS011;22384;54.302;18.596;2023-07-30T13:41:20;2.03;;;1.48;;
36355;SDS011;22384;54.302;18.596;2023-07-30T13:43:46;2.55;;;2.00;;
36355;SDS011;22384;54.302;18.596;2023-07-30T13:46:12;3.85;;;1.70;;
36355;SDS011;22384;54.302;18.596;2023-07-30T13:48:38;2.72;;;1.70;;
36355;SDS011;22384;54.302;18.596;2023-07-30T13:51:04;2.58;;;1.70;;
36355;SDS011;22384;54.302;18.596;2023-07-30T13:53:30;4.38;;;2.17;;
36355;SDS011;22384;54.302;18.596;2023-07-30T13:55:59;1.95;;;1.70;;
36355;SDS011;22384;54.302;18.596;2023-07-30T13:58:26;1.83;;;1.58;;
36355;SDS011;22384;54.302;18.596;2023-07-30T14:00:53;4.07;;;1.77;;
36355;SDS011;22384;54.302;18.596;2023-07-30T14:03:20;3.40;;;1.80;;
36355;SDS011;22384;54.302;18.596;2023-07-30T14:05:46;3.05;;;1.60;;
36355;SDS011;22384;54.302;18.596;2023-07-30T14:08:12;1.40;;;1.30;;
36355;SDS011;22384;54.302;18.596;2023-07-30T14:10:38;7.18;;;2.13;;
36355;SDS011;22384;54.302;18.596;2023-07-30T14:13:04;6.43;;;2.13;;
36355;SDS011;22384;54.302;18.596;2023-07-30T14:15:30;7.05;;;2.13;;
36355;SDS011;22384;54.302;18.596;2023-07-30T14:17:57;10.60;;;2.38;;
36355;SDS011;22384;54.302;18.596;2023-07-30T14:20:23;6.10;;;2.15;;
36355;SDS011;22384;54.302;18.596;2023-07-30T14:22:49;5.20;;;1.55;;
36355;SDS011;22384;54.302;18.596;2023-07-30T14:25:16;5.85;;;2.35;;
36355;SDS011;22384;54.302;18.596;2023-07-30T14:27:42;10.23;;;1.90;;
36355;SDS011;22384;54.302;18.596;2023-07-30T14:30:08;5.78;;;2.33;;
36355;SDS011;22384;54.302;18.596;2023-07-30T14:32:35;4.07;;;2.20;;
36355;SDS011;22384;54.302;18.596;2023-07-30T14:35:01;3.08;;;1.42;;
36355;SDS011;22384;54.302;18.596;2023-07-30T14:37:27;2.67;;;1.48;;
36355;SDS011;22384;54.302;18.596;2023-07-30T14:39:53;2.80;;;1.52;;
36355;SDS011;22384;54.302;18.596;2023-07-30T14:42:19;5.85;;;2.00;;